Abeokuta, Nigeria
Current Conditions -  °F | °C
As of 9:00 PM on Friday 24 Oct 2014 (Local Time) from DBBB Reporting Station
Few Clouds Few Clouds  
Wind Chill: 81°   Ceiling: Unl
Heat Index: 88°   Visibility: 6mi
Dew Point: 79°   Wind: 9mph
Humidity: 94%   Direction: 220°SW
Pressure: 29.85"   Gusts: NA
Location:  7.16°N, 3.35°E
Report Text: DBBB 242000Z 22008KT 9999 FEW012 FEW030CB 27/26 Q1011 RETS NOSIG
Loading
Personal Weather Stations






























Interactive Weather Map
Tropical Storm Tracking
New forecast layout! Learn more

10-Day Weather Forecast

Advertisements
Track Severe Weather on mobile